Terminal Aerodrome Forecast
Issued by NWS Albany, NY

Home | Current Version | Previous Version | Text Only | Print | Product List | Glossary On
Versions: 1 2 3 4 5 6 7 8 9 10 11 12 13 14 15 16 17 18
000
FTUS41 KALY 251723
TAFALB
TAF
KALB 251723Z 2518/2618 30011G21KT P6SM BKN050
     FM252300 30004G14KT P6SM SCT060
     FM260100 28005KT P6SM FEW060
     FM261200 30007KT P6SM SCT060=

USA.gov is the U.S. government's official web portal to all federal, state and local government web resources and services.